EGHH

Bournemouth Airport

Bournemouth, United Kingdom
METAR EGHH 221750Z 25008KT 9999 SCT032 15/11 Q1011
Observed Flight Rules
Apr-22 @ 17:50 UTC (32 minutes ago) Visual Flight Rules
Wind Visibility Clouds
250° at 8 knots 10,000+ meters
  • Scattered at 3,200' AGL
Temperatures Readings
Current 15°C / 59°F
Dewpoint 11°C / 52°F
Humidity 77%
Altimeter 29.85" Hg
Pressure 1011 hPa
Elevation 11
METAR EGHH 221750Z 25008KT 9999 SCT032 15/11 Q1011
Observed Flight Rules
Apr-22 @ 17:50 UTC
(32 minutes ago)
VFR
Wind Visibility
250° at 8 knots 10,000+ meters
Clouds
  • Scattered at 3,200' AGL
Temperature Dewpoint
15°C / 59°F 11°C / 52°F
Humidity Altimeter Pressure
77% 29.85" Hg 1011 hPa